Flight Track Log - Related Links

Times and Time Zones

All times are in EDT time to prevent confusion due to time zone crossing. See the UAL4625 flight status page for this flight to view local times or setup timezone preferences in your user account.

Time Position Orientation Groundspeed Altitude Reporting Facility
EDT Latitude Longitude Course Direction KTS MPH feet Rate Location/Type
Thu 11:04:55 AM 32.9625 -80.0156 13° North 212 244 2,500  Level Jacksonville Center
Thu 11:05:55 AM 33.0289 -79.9961 14° North 243 280 5,000 2,650 Climbing Jacksonville Center
Thu 11:06:55 AM 33.1014 -79.9767 13° North 254 292 7,800 2,600 Climbing Jacksonville Center
Thu 11:07:00 AM 33.2522 -79.9262 North  Level FlightAware Approximate
Thu 11:07:55 AM 33.1742 -79.9567 13° North 277 319 10,200  Level Jacksonville Center
Thu 11:08:00 AM 33.3434 -79.8950 23° Northeast  Level FlightAware Approximate
Thu 11:08:55 AM 33.2675 -79.9314 13° North 308 354 10,900  Level Jacksonville Center
Thu 11:09:00 AM 33.4360 -79.8695 North  Level FlightAware Approximate
Thu 11:09:55 AM 33.3753 -79.9006 13° North 354 407 12,500  Level Jacksonville Center
Thu 11:10:00 AM 33.5291 -79.8441 13° North  Level FlightAware Approximate
Thu 11:10:55 AM 33.4808 -79.8694 14° North 377 434 14,100  Level Jacksonville Center
Thu 11:11:55 AM 33.5889 -79.8408 12° North 389 448 15,600 1,550 Climbing Jacksonville Center
Thu 11:12:55 AM 33.6964 -79.8097 14° North 389 448 17,200 1,450 Climbing Jacksonville Center
Thu 11:13:55 AM 33.8042 -79.7783 14° North 389 448 18,500 1,400 Climbing Jacksonville Center
Thu 11:14:55 AM 33.9119 -79.7494 13° North 389 448 20,000 1,550 Climbing Jacksonville Center
Thu 11:15:55 AM 34.0239 -79.7181 13° North 394 453 21,600 1,500 Climbing Jacksonville Center
Thu 11:16:55 AM 34.1336 -79.6864 13° North 394 453 23,000 1,283 Climbing Jacksonville Center
Thu 11:18:48 AM 34.3469 -79.6517 North 398 458 25,300 1,214 Climbing Washington Center
Thu 11:19:48 AM 34.4661 -79.6450 North 414 476 26,500 1,200 Climbing Washington Center
Thu 11:20:48 AM 34.5811 -79.6381 North 419 482 27,700 1,200 Climbing Washington Center
Thu 11:21:48 AM 34.7003 -79.6289 North 424 488 28,900 1,150 Climbing Washington Center
Thu 11:22:48 AM 34.8153 -79.6219 North 424 488 30,000 1,100 Climbing Washington Center
Thu 11:23:48 AM 34.9367 -79.6153 North 424 488 31,100 1,050 Climbing Washington Center
Thu 11:24:48 AM 35.0600 -79.6061 North 430 495 32,100 1,000 Climbing Washington Center
Thu 11:25:48 AM 35.1817 -79.5842 North 435 501 33,100 900 Climbing Washington Center
Thu 11:26:48 AM 35.2928 -79.5083 29° Northeast 435 501 33,900 700 Climbing Washington Center
Thu 11:27:48 AM 35.3997 -79.4294 31° Northeast 435 501 34,500 550 Climbing Washington Center
Thu 11:28:48 AM 35.5233 -79.3436 29° Northeast 456 525 35,000 250 Climbing Washington Center
Thu 11:29:48 AM 35.6197 -79.2714 31° Northeast 462 532 35,000  Level Washington Center
Thu 11:30:48 AM 35.7369 -79.1872 30° Northeast 456 525 35,000  Level Washington Center
Thu 11:31:48 AM 35.8436 -79.1075 31° Northeast 450 518 35,000  Level Washington Center
Thu 11:32:48 AM 35.9458 -79.0325 31° Northeast 438 504 35,000  Level Washington Center
Thu 11:33:48 AM 36.0483 -78.9575 31° Northeast 432 497 35,000  Level Washington Center
Thu 11:34:48 AM 36.1547 -78.8797 31° Northeast 432 497 35,000  Level Washington Center
Thu 11:35:48 AM 36.2656 -78.7967 31° Northeast 442 509 35,000  Level Washington Center
Thu 11:36:48 AM 36.3806 -78.7111 31° Northeast 462 532 35,000  Level Washington Center
Thu 11:37:48 AM 36.4911 -78.6250 32° Northeast 468 539 35,000  Level Washington Center
Thu 11:38:48 AM 36.6058 -78.5389 31° Northeast 468 539 35,000  Level Washington Center
Thu 11:39:48 AM 36.7058 -78.4597 32° Northeast 473 544 35,000  Level Washington Center
Thu 11:40:48 AM 36.8206 -78.3733 31° Northeast 473 544 35,000  Level Washington Center
Thu 11:41:48 AM 36.9375 -78.2867 31° Northeast 479 551 35,000  Level Washington Center
Thu 11:42:48 AM 37.0625 -78.1894 32° Northeast 479 551 35,000  Level Washington Center
Thu 11:43:48 AM 37.1644 -78.1094 32° Northeast 479 551 35,000  Level Washington Center
Thu 11:44:48 AM 37.2767 -78.0244 31° Northeast 474 545 35,000  Level Washington Center
Thu 11:45:48 AM 37.3911 -77.9367 31° Northeast 474 545 35,000  Level Washington Center
Thu 11:46:48 AM 37.5033 -77.8483 32° Northeast 474 545 35,000  Level Washington Center
Thu 11:47:48 AM 37.6114 -77.7547 34° Northeast 474 545 35,000 -300 Level Washington Center
Thu 11:48:48 AM 37.7197 -77.6581 35° Northeast 474 545 34,400 -500 Descending Washington Center
Thu 11:49:48 AM 37.8275 -77.5583 36° Northeast 474 545 34,000 -650 Descending Washington Center
Thu 11:50:48 AM 37.9314 -77.4636 36° Northeast 474 545 33,100 -950 Descending Washington Center
Thu 11:51:48 AM 38.0264 -77.3764 36° Northeast 448 516 32,100 -950 Descending Washington Center
Thu 11:52:48 AM 38.1217 -77.2914 35° Northeast 424 488 31,200 -950 Descending Washington Center
Thu 11:53:48 AM 38.2144 -77.2039 37° Northeast 419 482 30,200 -600 Descending Washington Center
Thu 11:54:48 AM 38.3075 -77.1158 37° Northeast 419 482 30,000 -100 Descending Washington Center
Thu 11:55:48 AM 38.4022 -77.0278 36° Northeast 414 476 30,000  Level Washington Center
Thu 11:56:48 AM 38.4972 -76.9419 35° Northeast 414 476 30,000  Level Washington Center
Thu 11:57:48 AM 38.5900 -76.8533 37° Northeast 414 476 30,000  Level Washington Center
Thu 11:58:48 AM 38.6950 -76.7539 36° Northeast 423 487 30,000 -200 Level Washington Center
Thu 11:59:48 AM 38.7858 -76.6517 41° Northeast 423 487 29,600 -1,109 Descending Washington Center
Thu 12:00:47 PM 38.8825 -76.5408 42° Northeast 437 503 27,800 -1,311 Descending Washington Center
Thu 12:01:47 PM 38.9772 -76.4328 42° Northeast 450 518 27,000 -400 Descending Washington Center
Thu 12:02:47 PM 39.0717 -76.3189 43° Northeast 450 518 27,000  Level Washington Center
Thu 12:03:48 PM 39.1703 -76.2075 41° Northeast 455 524 27,000  Level Washington Center
Thu 12:04:47 PM 39.2583 -76.1089 41° Northeast 460 529 27,000  Level Washington Center
Thu 12:05:48 PM 39.3525 -75.9969 43° Northeast 460 529 27,000 -100 Level Washington Center
Thu 12:06:47 PM 39.4486 -75.8819 43° Northeast 465 535 26,800 -550 Descending Washington Center
Thu 12:07:48 PM 39.5447 -75.7692 42° Northeast 465 535 25,900 -950 Descending Washington Center
Thu 12:08:47 PM 39.6386 -75.6589 42° Northeast 460 529 24,900 -1,350 Descending Washington Center
Thu 12:09:48 PM 39.7364 -75.5403 43° Northeast 448 516 23,200 -2,231 Descending Washington Center
Thu 12:10:48 PM 39.8217 -75.4375 43° Northeast 432 497 20,400 -2,750 Descending Washington Center
Thu 12:11:48 PM 39.9028 -75.3400 43° Northeast 413 475 17,700 -2,550 Descending Washington Center
Thu 12:12:48 PM 39.9817 -75.2450 43° Northeast 394 453 15,300 -2,622 Descending Washington Center
Thu 12:13:47 PM 40.0544 -75.1578 43° Northeast 368 423 12,500 -1,843 Descending Washington Center
Thu 12:15:08 PM 40.1500 -75.0333 45° Northeast 346 398 11,000 -1,277 Descending New York TRACON
Thu 12:16:08 PM 40.2167 -74.9667 37° Northeast 315 362 9,500 -1,450 Descending New York TRACON
Thu 12:17:08 PM 40.2667 -74.8833 52° Northeast 302 348 8,100 -750 Descending New York TRACON
Thu 12:18:08 PM 40.3167 -74.8000 52° Northeast 282 325 8,000 -350 Descending New York TRACON
Thu 12:19:08 PM 40.3500 -74.7167 62° Northeast 255 293 7,400 -744 Descending New York TRACON
Thu 12:20:09 PM 40.3833 -74.6333 62° Northeast 256 295 6,500 -700 Descending New York TRACON
Thu 12:21:08 PM 40.4333 -74.6000 27° Northeast 260 299 6,000 -252 Descending New York TRACON
Thu 12:22:08 PM 40.5000 -74.6333 339° North 246 283 6,000  Level New York TRACON
Thu 12:23:08 PM 40.5667 -74.6500 349° North 250 288 6,000  Level New York TRACON
Thu 12:24:08 PM 40.6333 -74.6500 360° North 257 296 6,000  Level New York TRACON
Thu 12:25:08 PM 40.6833 -74.6833 333° Northwest 251 289 6,000  Level New York TRACON
Thu 12:26:08 PM 40.7000 -74.7500 288° West 213 245 6,000 50 Level New York TRACON
Thu 12:27:08 PM 40.7333 -74.8333 298° West 237 273 6,100  Climbing New York TRACON
Thu 12:28:08 PM 40.8000 -74.8333 360° North 262 302 6,000 -50 Descending New York TRACON
Thu 12:29:08 PM 40.8500 -74.7667 45° Northeast 262 302 6,000  Level New York TRACON
Thu 12:30:09 PM 40.8833 -74.6833 62° Northeast 260 299 6,000  Level New York TRACON
Thu 12:31:14 PM 40.9167 -74.6000 62° Northeast 256 295 6,000  Level New York TRACON
Thu 12:32:08 PM 40.9833 -74.5500 30° Northeast 261 300 6,000  Level New York TRACON
Thu 12:33:08 PM 41.0167 -74.5000 49° Northeast 240 276 6,000 -450 Level New York TRACON
Thu 12:34:08 PM 41.0500 -74.4167 62° Northeast 239 275 5,100 -500 Descending New York TRACON
Thu 12:35:08 PM 41.0500 -74.3333 90° East 210 242 5,000 -350 Descending New York TRACON
Thu 12:36:08 PM 41.0167 -74.2667 124° Southeast 200 230 4,400 -496 Descending New York TRACON
Thu 12:37:09 PM 40.9833 -74.2167 131° Southeast 178 205 4,000 -198 Descending New York TRACON
Thu 12:38:09 PM 40.9500 -74.1667 131° Southeast 172 198 4,000  Level New York TRACON
Thu 12:39:09 PM 40.9167 -74.1333 143° Southeast 169 194 4,000  Level New York TRACON

Login

Don't have an account? Register now (free) for customized features, flight alerts, and more!